createdAt,value
2018-07-25T00:01:03.177Z,99774.58
2018-07-25T00:03:39.483Z,99780.31
2018-07-25T00:06:12.634Z,99779.22
2018-07-25T00:08:45.956Z,99779.75
2018-07-25T00:11:18.800Z,99783.59
2018-07-25T00:13:52.602Z,99776.10
2018-07-25T00:16:25.626Z,99775.70
2018-07-25T00:18:59.544Z,99775.86
2018-07-25T00:21:34.390Z,99771.66
2018-07-25T00:24:07.500Z,99771.66
2018-07-25T00:26:40.424Z,99771.44
2018-07-25T00:29:13.323Z,99772.87
2018-07-25T00:31:46.024Z,99769.81
2018-07-25T00:34:19.854Z,99766.27
2018-07-25T00:36:52.344Z,99766.68
2018-07-25T00:39:26.611Z,99774.59
2018-07-25T00:42:01.399Z,99769.75
2018-07-25T00:44:34.100Z,99775.59
2018-07-25T00:47:07.593Z,99771.00
2018-07-25T00:49:41.227Z,99767.61
2018-07-25T00:52:13.748Z,99771.20
2018-07-25T00:54:48.015Z,99773.17
2018-07-25T00:57:24.675Z,99772.86
2018-07-25T00:59:58.829Z,99770.66
2018-07-25T01:02:31.277Z,99779.26
2018-07-25T01:05:05.003Z,99771.73
2018-07-25T01:07:37.484Z,99765.75
2018-07-25T01:10:10.696Z,99771.38
2018-07-25T01:12:47.852Z,99771.92
2018-07-25T01:15:21.691Z,99771.47
2018-07-25T01:17:57.153Z,99773.80
2018-07-25T01:20:29.772Z,99773.06
2018-07-25T01:23:02.568Z,99773.93
2018-07-25T01:25:35.021Z,99771.95
2018-07-25T01:28:07.477Z,99771.47
2018-07-25T01:30:40.238Z,99773.37
2018-07-25T01:33:12.910Z,99769.83
2018-07-25T01:35:53.626Z,99776.27
2018-07-25T01:38:26.439Z,99774.95
2018-07-25T01:40:59.206Z,99772.78
2018-07-25T01:43:31.725Z,99772.95
2018-07-25T01:46:05.308Z,99773.77
2018-07-25T01:48:38.040Z,99769.96
2018-07-25T01:51:10.544Z,99768.69
2018-07-25T01:53:43.040Z,99767.49
2018-07-25T01:56:15.899Z,99774.30
2018-07-25T01:58:48.448Z,99775.49
2018-07-25T02:01:21.120Z,99774.58
2018-07-25T02:03:53.983Z,99779.37
2018-07-25T02:06:27.715Z,99778.34
2018-07-25T02:09:01.031Z,99780.77
2018-07-25T02:11:33.983Z,99777.52
2018-07-25T02:14:06.645Z,99773.22
2018-07-25T02:16:40.364Z,99776.72
2018-07-25T02:19:13.196Z,99777.97
2018-07-25T02:21:45.737Z,99781.56
2018-07-25T02:24:18.395Z,99780.02
2018-07-25T02:26:52.375Z,99783.81
2018-07-25T02:29:24.944Z,99784.65
2018-07-25T02:31:57.723Z,99783.52
2018-07-25T02:34:30.468Z,99785.61
2018-07-25T02:37:02.919Z,99789.50
2018-07-25T02:39:35.349Z,99789.92
2018-07-25T02:42:08.256Z,99789.18
2018-07-25T02:44:40.785Z,99795.30
2018-07-25T02:47:13.644Z,99792.64
2018-07-25T02:49:46.579Z,99795.66
2018-07-25T02:52:19.234Z,99795.69
2018-07-25T02:54:51.748Z,99795.97
2018-07-25T02:57:25.913Z,99802.98
2018-07-25T02:59:58.599Z,99805.00
2018-07-25T03:02:31.117Z,99804.98
2018-07-25T03:05:04.704Z,99810.10
2018-07-25T03:07:38.288Z,99809.63
2018-07-25T03:10:11.585Z,99811.77
2018-07-25T03:12:45.313Z,99816.13
2018-07-25T03:15:17.367Z,99818.58
2018-07-25T03:17:50.447Z,99815.70
2018-07-25T03:20:23.300Z,99817.30
2018-07-25T03:22:55.765Z,99818.17
2018-07-25T03:25:28.235Z,99818.38
2018-07-25T03:28:01.160Z,99826.59
2018-07-25T03:30:33.841Z,99830.25
2018-07-25T03:33:06.665Z,99832.04
2018-07-25T03:35:40.125Z,99832.70
2018-07-25T03:38:12.802Z,99831.83
2018-07-25T03:40:45.653Z,99832.52
2018-07-25T03:43:19.220Z,99836.00
2018-07-25T03:45:52.628Z,99834.94
2018-07-25T03:48:25.073Z,99839.15
2018-07-25T03:50:58.680Z,99832.49
2018-07-25T03:53:31.265Z,99837.46
2018-07-25T03:56:04.108Z,99837.38
2018-07-25T03:58:37.196Z,99836.34
2018-07-25T04:01:09.862Z,99836.03
2018-07-25T04:03:42.581Z,99840.53
2018-07-25T04:06:16.048Z,99843.98
2018-07-25T04:08:49.109Z,99845.05
2018-07-25T04:11:21.750Z,99850.75
2018-07-25T04:13:54.550Z,99846.76
2018-07-25T04:16:27.164Z,99848.34
2018-07-25T04:18:59.694Z,99850.20
2018-07-25T04:21:32.493Z,99847.33
2018-07-25T04:24:05.392Z,99846.36
2018-07-25T04:26:38.073Z,99846.55
2018-07-25T04:29:10.781Z,99849.95
2018-07-25T04:31:45.088Z,99852.52
2018-07-25T04:34:17.614Z,99853.09
2018-07-25T04:36:50.662Z,99853.07
2018-07-25T04:39:23.657Z,99858.44
2018-07-25T04:41:56.420Z,99857.38
2018-07-25T04:44:29.438Z,99865.60
2018-07-25T04:47:02.517Z,99866.90
2018-07-25T04:49:35.121Z,99870.11
2018-07-25T04:52:07.920Z,99868.53
2018-07-25T04:54:40.500Z,99868.36
2018-07-25T04:57:13.115Z,99868.66
2018-07-25T04:59:45.652Z,99874.05
2018-07-25T05:02:21.228Z,99870.35
2018-07-25T05:04:54.064Z,99865.88
2018-07-25T05:07:26.639Z,99872.73
2018-07-25T05:09:59.602Z,99872.55
2018-07-25T05:12:32.462Z,99867.86
2018-07-25T05:15:09.067Z,99868.65
2018-07-25T05:17:41.664Z,99875.30
2018-07-25T05:20:14.443Z,99870.26
2018-07-25T05:22:47.049Z,99874.30
2018-07-25T05:25:19.663Z,99886.06
2018-07-25T05:27:53.069Z,99890.95
2018-07-25T05:30:25.897Z,99891.91
2018-07-25T05:32:58.855Z,99894.14
2018-07-25T05:35:31.852Z,99898.66
2018-07-25T05:38:05.411Z,99902.30
2018-07-25T05:40:37.873Z,99901.46
2018-07-25T05:43:10.373Z,99904.41
2018-07-25T05:45:44.228Z,99903.78
2018-07-25T05:48:18.319Z,99899.39
2018-07-25T05:50:50.975Z,99901.39
2018-07-25T05:53:24.059Z,99904.77
2018-07-25T05:55:56.650Z,99904.13
2018-07-25T05:58:29.365Z,99903.44
2018-07-25T06:01:01.895Z,99903.28
2018-07-25T06:03:35.503Z,99906.19
2018-07-25T06:06:21.468Z,99905.97
2018-07-25T06:08:53.954Z,99910.69
2018-07-25T06:11:26.782Z,99912.66
2018-07-25T06:13:59.268Z,99911.64
2018-07-25T06:16:31.664Z,99917.95
2018-07-25T06:19:04.748Z,99920.90
2018-07-25T06:21:37.225Z,99923.94
2018-07-25T06:24:09.869Z,99927.80
2018-07-25T06:26:42.778Z,99933.39
2018-07-25T06:29:17.291Z,99938.91
2018-07-25T06:31:49.896Z,99943.13
2018-07-25T06:34:23.584Z,99945.16
2018-07-25T06:36:56.392Z,99944.36
2018-07-25T06:39:29.997Z,99943.10
2018-07-25T06:42:04.711Z,99948.26
2018-07-25T06:44:37.616Z,99953.32
2018-07-25T06:47:21.037Z,99952.73
2018-07-25T06:49:56.344Z,99951.27
2018-07-25T06:52:29.179Z,99952.45
2018-07-25T06:55:02.464Z,99955.44
2018-07-25T06:57:35.349Z,99961.14
2018-07-25T07:00:08.006Z,99960.05
2018-07-25T07:02:41.232Z,99957.04
2018-07-25T07:05:14.100Z,99962.31
2018-07-25T07:07:47.048Z,99960.31
2018-07-25T07:10:21.545Z,99964.14
2018-07-25T07:12:55.765Z,99968.54
2018-07-25T07:15:29.803Z,99970.13
2018-07-25T07:18:05.262Z,99969.37
2018-07-25T07:20:41.192Z,99971.23
2018-07-25T07:23:14.205Z,99970.95
2018-07-25T07:25:47.637Z,99972.47
2018-07-25T07:28:20.515Z,99971.45
2018-07-25T07:30:53.840Z,99973.16
2018-07-25T07:33:29.792Z,99970.10
2018-07-25T07:36:02.852Z,99970.47
2018-07-25T07:38:35.944Z,99963.76
2018-07-25T07:41:09.233Z,99965.41
2018-07-25T07:43:42.592Z,99962.84
2018-07-25T07:46:16.893Z,99964.20
2018-07-25T07:48:52.785Z,99964.55
2018-07-25T07:51:25.544Z,99962.83
2018-07-25T07:53:58.844Z,99966.38
2018-07-25T07:56:34.987Z,99963.23
2018-07-25T07:59:13.577Z,99964.89
2018-07-25T08:01:46.540Z,99971.48
2018-07-25T08:04:21.948Z,99972.54
2018-07-25T08:06:55.785Z,99972.16
2018-07-25T08:09:29.207Z,99972.63
2018-07-25T08:12:03.838Z,99976.04
2018-07-25T08:14:37.811Z,99974.52
2018-07-25T08:17:14.960Z,99975.19
2018-07-25T08:19:47.879Z,99969.08
2018-07-25T08:22:20.641Z,99970.01
2018-07-25T08:24:53.390Z,99965.30
2018-07-25T08:27:28.013Z,99971.06
2018-07-25T08:30:03.817Z,99970.27
2018-07-25T08:32:39.515Z,99972.33
2018-07-25T08:35:12.933Z,99975.52
2018-07-25T08:37:45.850Z,99971.32
2018-07-25T08:40:26.812Z,99969.55
2018-07-25T08:43:00.865Z,99968.95
2018-07-25T08:45:35.068Z,99967.45
2018-07-25T08:48:09.888Z,99967.78
2018-07-25T08:50:42.756Z,99968.82
2018-07-25T08:53:16.827Z,99969.77
2018-07-25T08:55:51.590Z,99967.46
2018-07-25T08:58:25.196Z,99969.04
2018-07-25T09:01:04.227Z,99968.66
2018-07-25T09:03:37.216Z,99965.00
2018-07-25T09:06:09.967Z,99970.86
2018-07-25T09:08:43.910Z,99968.09
2018-07-25T09:11:24.926Z,99968.65
2018-07-25T09:14:00.802Z,99968.98
2018-07-25T09:16:34.545Z,99967.34
2018-07-25T09:19:09.356Z,99968.23
2018-07-25T09:21:43.256Z,99969.34
2018-07-25T09:24:16.380Z,99969.91
2018-07-25T09:26:49.930Z,99970.99
2018-07-25T09:29:22.862Z,99963.66
2018-07-25T09:31:59.092Z,99965.83
2018-07-25T09:34:32.328Z,99960.49
2018-07-25T09:37:09.742Z,99962.73
2018-07-25T09:39:48.427Z,99962.64
2018-07-25T09:42:23.952Z,99962.38
2018-07-25T09:44:58.310Z,99962.69
2018-07-25T09:47:31.152Z,99956.52
2018-07-25T09:50:10.900Z,99957.55
2018-07-25T09:52:45.347Z,99956.08
2018-07-25T09:55:19.312Z,99951.05
2018-07-25T09:57:53.697Z,99950.20
2018-07-25T10:00:32.514Z,99947.55
2018-07-25T10:03:06.244Z,99948.77
2018-07-25T10:05:41.557Z,99948.02
2018-07-25T10:08:16.447Z,99952.02
2018-07-25T10:10:50.725Z,99951.67
2018-07-25T10:13:24.625Z,99951.52
2018-07-25T10:16:03.561Z,99955.38
2018-07-25T10:18:44.741Z,99950.81
2018-07-25T10:21:38.562Z,99951.38
2018-07-25T10:24:35.780Z,99946.82
2018-07-25T10:27:09.990Z,99953.25
2018-07-25T10:29:45.185Z,99945.77
2018-07-25T10:32:26.629Z,99945.41
2018-07-25T10:35:00.765Z,99942.05
2018-07-25T10:37:35.486Z,99942.00
2018-07-25T10:40:09.981Z,99939.35
2018-07-25T10:42:44.686Z,99938.62
2018-07-25T10:45:19.712Z,99938.80
2018-07-25T10:47:58.240Z,99941.81
2018-07-25T10:50:34.589Z,99933.46
2018-07-25T10:53:11.639Z,99933.10
2018-07-25T10:55:47.570Z,99931.87
2018-07-25T10:58:30.975Z,99932.86
2018-07-25T11:01:04.250Z,99936.22
2018-07-25T11:03:41.420Z,99930.66
2018-07-25T11:06:19.275Z,99927.84
2018-07-25T11:08:53.592Z,99928.23
2018-07-25T11:11:30.641Z,99928.30
2018-07-25T11:14:16.179Z,99926.36
2018-07-25T11:16:53.687Z,99921.02
2018-07-25T11:19:27.663Z,99918.05
2018-07-25T11:22:03.733Z,99920.94
2018-07-25T11:24:41.570Z,99919.25
2018-07-25T11:27:21.526Z,99911.21
2018-07-25T11:29:54.257Z,99904.85
2018-07-25T11:32:27.641Z,99903.84
2018-07-25T11:35:01.493Z,99903.05
2018-07-25T11:37:39.344Z,99902.02
2018-07-25T11:40:15.120Z,99905.50
2018-07-25T11:42:50.887Z,99898.45
2018-07-25T11:45:30.915Z,99894.98
2018-07-25T11:48:05.753Z,99891.81
2018-07-25T11:50:41.030Z,99895.27
2018-07-25T11:53:13.954Z,99891.50
2018-07-25T11:55:47.954Z,99885.76
2018-07-25T11:58:21.996Z,99889.52
2018-07-25T12:00:57.952Z,99884.25
2018-07-25T12:03:30.773Z,99891.88
2018-07-25T12:06:05.974Z,99882.70
2018-07-25T12:08:39.505Z,99873.95
2018-07-25T12:11:13.505Z,99876.12
2018-07-25T12:13:49.277Z,99875.00
2018-07-25T12:16:22.056Z,99870.78
2018-07-25T12:18:54.850Z,99868.69
2018-07-25T12:21:30.901Z,99870.05
2018-07-25T12:24:05.465Z,99870.59
2018-07-25T12:26:38.941Z,99866.59
2018-07-25T12:29:12.628Z,99864.59
2018-07-25T12:31:45.785Z,99866.80
2018-07-25T12:34:20.075Z,99855.57
2018-07-25T12:36:53.965Z,99852.22
2018-07-25T12:39:28.208Z,99849.23
2018-07-25T12:42:02.665Z,99852.16
2018-07-25T12:44:35.580Z,99845.68
2018-07-25T12:47:09.408Z,99841.73
2018-07-25T12:49:42.917Z,99844.26
2018-07-25T12:52:15.809Z,99841.25
2018-07-25T12:54:55.069Z,99834.93
2018-07-25T12:57:28.344Z,99836.37
2018-07-25T13:00:03.062Z,99835.33
2018-07-25T13:02:37.220Z,99834.22
2018-07-25T13:05:13.509Z,99832.48
2018-07-25T13:07:49.015Z,99831.94
2018-07-25T13:10:22.283Z,99838.66
2018-07-25T13:12:55.661Z,99836.81
2018-07-25T13:15:29.169Z,99838.28
2018-07-25T13:18:02.308Z,99842.65
2018-07-25T13:20:36.408Z,99837.81
2018-07-25T13:23:11.841Z,99841.34
2018-07-25T13:25:46.076Z,99839.97
2018-07-25T13:28:20.322Z,99852.84
2018-07-25T13:30:58.979Z,99840.73
2018-07-25T13:33:31.813Z,99858.30
2018-07-25T13:36:04.745Z,99862.70
2018-07-25T13:38:40.056Z,99859.87
2018-07-25T13:41:16.361Z,99857.70
2018-07-25T13:43:51.249Z,99869.97
2018-07-25T13:46:30.072Z,99866.17
2018-07-25T13:49:04.936Z,99863.03
2018-07-25T13:51:38.142Z,99863.72
2018-07-25T13:54:15.401Z,99858.08
2018-07-25T13:56:49.348Z,99854.91
2018-07-25T13:59:23.228Z,99851.16
2018-07-25T14:01:57.387Z,99848.69
2018-07-25T14:04:31.781Z,99852.33
2018-07-25T14:07:04.670Z,99857.34
2018-07-25T14:09:37.782Z,99871.54
2018-07-25T14:12:10.747Z,99874.75
2018-07-25T14:14:45.028Z,99865.22
2018-07-25T14:17:19.917Z,99859.93
2018-07-25T14:19:53.927Z,99852.67
2018-07-25T14:22:29.465Z,99852.95
2018-07-25T14:25:02.268Z,99850.38
2018-07-25T14:27:39.031Z,99852.33
2018-07-25T14:30:17.633Z,99857.27
2018-07-25T14:32:51.975Z,99860.24
2018-07-25T14:35:26.560Z,99860.14
2018-07-25T14:38:02.375Z,99857.20
2018-07-25T14:40:35.684Z,99853.89
2018-07-25T14:43:08.900Z,99850.48
2018-07-25T14:45:43.981Z,99856.42
2018-07-25T14:48:17.393Z,99863.01
2018-07-25T14:50:51.043Z,99856.41
2018-07-25T14:53:24.072Z,99849.16
2018-07-25T14:55:57.303Z,99846.83
2018-07-25T14:58:30.751Z,99840.95
2018-07-25T15:01:06.606Z,99839.72
2018-07-25T15:03:41.368Z,99841.20
2018-07-25T15:06:21.070Z,99838.44
2018-07-25T15:08:54.876Z,99838.20
2018-07-25T15:11:38.976Z,99833.22
2018-07-25T15:14:13.165Z,99833.02
2018-07-25T15:16:48.181Z,99835.48
2018-07-25T15:19:22.480Z,99834.05
2018-07-25T15:21:56.489Z,99831.14
2018-07-25T15:24:29.741Z,99832.08
2018-07-25T15:27:05.456Z,99831.98
2018-07-25T15:29:38.729Z,99831.57
2018-07-25T15:32:13.072Z,99830.53
2018-07-25T15:34:45.984Z,99828.80
2018-07-25T15:37:20.363Z,99825.80
2018-07-25T15:39:54.283Z,99821.20
2018-07-25T15:42:27.483Z,99816.39
2018-07-25T15:45:01.371Z,99816.09
2018-07-25T15:47:38.811Z,99805.91
2018-07-25T15:50:14.624Z,99812.24
2018-07-25T15:52:49.194Z,99812.56
2018-07-25T15:55:22.796Z,99811.20
2018-07-25T15:57:58.780Z,99811.42
2018-07-25T16:00:36.076Z,99809.63
2018-07-25T16:03:11.361Z,99808.88
2018-07-25T16:05:44.645Z,99812.75
2018-07-25T16:08:18.214Z,99811.69
2018-07-25T16:10:51.203Z,99806.63
2018-07-25T16:13:25.116Z,99806.77
2018-07-25T16:15:58.529Z,99802.20
2018-07-25T16:18:32.996Z,99798.85
2018-07-25T16:21:10.086Z,99797.73
2018-07-25T16:23:48.886Z,99797.69
2018-07-25T16:26:23.560Z,99794.89
2018-07-25T16:29:02.480Z,99791.10
2018-07-25T16:31:37.002Z,99787.32
2018-07-25T16:34:11.339Z,99785.66
2018-07-25T16:36:45.588Z,99786.77
2018-07-25T16:39:19.484Z,99789.41
2018-07-25T16:41:52.687Z,99784.57
2018-07-25T16:44:29.129Z,99784.92
2018-07-25T16:47:03.301Z,99790.42
2018-07-25T16:49:37.803Z,99792.18
2018-07-25T16:52:11.154Z,99798.77
2018-07-25T16:54:45.907Z,99796.14
2018-07-25T16:57:19.906Z,99802.00
2018-07-25T16:59:53.785Z,99807.45
2018-07-25T17:02:28.518Z,99799.81
2018-07-25T17:05:05.459Z,99802.20
2018-07-25T17:07:38.155Z,99808.03
2018-07-25T17:10:11.769Z,99810.20
2018-07-25T17:12:46.690Z,99811.66
2018-07-25T17:15:25.306Z,99816.48
2018-07-25T17:17:59.578Z,99826.95
2018-07-25T17:20:36.505Z,99831.63
2018-07-25T17:23:25.080Z,99826.63
2018-07-25T17:25:58.416Z,99828.82
2018-07-25T17:28:32.779Z,99830.73
2018-07-25T17:31:06.633Z,99837.29
2018-07-25T17:33:39.398Z,99835.26
2018-07-25T17:36:16.351Z,99836.68
2018-07-25T17:38:52.299Z,99837.67
2018-07-25T17:41:26.314Z,99838.78
2018-07-25T17:44:01.697Z,99848.75
2018-07-25T17:46:41.058Z,99848.48
2018-07-25T17:49:21.557Z,99842.44
2018-07-25T17:51:57.233Z,99840.81
2018-07-25T17:54:31.517Z,99848.14
2018-07-25T17:57:06.275Z,99851.14
2018-07-25T17:59:42.301Z,99847.55
2018-07-25T18:02:16.478Z,99849.06
2018-07-25T18:04:50.867Z,99849.27
2018-07-25T18:07:28.049Z,99851.23
2018-07-25T18:10:01.123Z,99849.67
2018-07-25T18:12:41.594Z,99849.33
2018-07-25T18:15:17.912Z,99859.30
2018-07-25T18:18:01.187Z,99857.86
2018-07-25T18:20:39.546Z,99865.32
2018-07-25T18:23:14.831Z,99863.61
2018-07-25T18:25:51.388Z,99870.95
2018-07-25T18:28:24.441Z,99873.08
2018-07-25T18:31:02.157Z,99876.07
2018-07-25T18:33:38.408Z,99880.41
2018-07-25T18:36:19.549Z,99877.88
2018-07-25T18:39:01.898Z,99882.31
2018-07-25T18:41:42.437Z,99888.31
2018-07-25T18:44:16.639Z,99894.23
2018-07-25T18:47:03.710Z,99888.47
2018-07-25T18:49:56.517Z,99892.22
2018-07-25T18:52:35.404Z,99889.61
2018-07-25T18:55:12.180Z,99895.41
2018-07-25T18:57:53.692Z,99896.70
2018-07-25T19:00:27.465Z,99906.02
2018-07-25T19:03:04.825Z,99910.75
2018-07-25T19:05:40.677Z,99911.91
2018-07-25T19:08:14.333Z,99917.09
2018-07-25T19:10:48.277Z,99911.09
2018-07-25T19:13:27.488Z,99918.88
2018-07-25T19:16:04.566Z,99919.95
2018-07-25T19:18:44.462Z,99923.23
2018-07-25T19:21:22.169Z,99923.67
2018-07-25T19:23:55.762Z,99929.09
2018-07-25T19:26:30.516Z,99930.33
2018-07-25T19:29:05.508Z,99930.34
2018-07-25T19:31:43.694Z,99937.39
2018-07-25T19:34:21.555Z,99933.20
2018-07-25T19:36:55.830Z,99936.78
2018-07-25T19:39:38.187Z,99934.16
2018-07-25T19:42:15.622Z,99938.17
2018-07-25T19:44:49.217Z,99932.21
2018-07-25T19:47:22.765Z,99929.93
2018-07-25T19:49:55.617Z,99930.69
2018-07-25T19:52:30.938Z,99928.39
2018-07-25T19:55:06.528Z,99929.69
2018-07-25T19:57:41.848Z,99929.32
2018-07-25T20:00:18.101Z,99927.02
2018-07-25T20:02:56.761Z,99926.89
2018-07-25T20:05:32.516Z,99924.33
2018-07-25T20:08:06.504Z,99923.40
2018-07-25T20:10:44.424Z,99921.55
2018-07-25T20:13:17.885Z,99919.91
2018-07-25T20:15:57.548Z,99911.56
2018-07-25T20:18:32.229Z,99914.55
2018-07-25T20:21:06.813Z,99907.64
2018-07-25T20:23:41.707Z,99916.16
2018-07-25T20:26:19.271Z,99915.70
2018-07-25T20:28:58.070Z,99913.16
2018-07-25T20:31:33.761Z,99910.48
2018-07-25T20:34:09.903Z,99906.56
2018-07-25T20:36:46.564Z,99905.04
2018-07-25T20:39:23.833Z,99902.84
2018-07-25T20:42:03.129Z,99906.99
2018-07-25T20:44:40.970Z,99903.73
2018-07-25T20:47:16.864Z,99911.45
2018-07-25T20:49:54.608Z,99904.75
2018-07-25T20:52:31.108Z,99909.25
2018-07-25T20:55:10.580Z,99900.98
2018-07-25T20:57:43.548Z,99911.88
2018-07-25T21:00:33.245Z,99912.16
2018-07-25T21:03:06.832Z,99918.63
2018-07-25T21:05:47.023Z,99915.41
2018-07-25T21:08:20.464Z,99921.78
2018-07-25T21:10:55.496Z,99924.92
2018-07-25T21:13:35.413Z,99920.06
2018-07-25T21:16:10.855Z,99926.02
2018-07-25T21:18:52.345Z,99921.64
2018-07-25T21:21:25.410Z,99926.21
2018-07-25T21:24:01.842Z,99928.66
2018-07-25T21:26:37.071Z,99930.14
2018-07-25T21:29:10.828Z,99929.16
2018-07-25T21:31:46.997Z,99935.39
2018-07-25T21:34:19.937Z,99934.14
2018-07-25T21:36:53.226Z,99941.08
2018-07-25T21:39:26.700Z,99943.95
2018-07-25T21:42:01.282Z,99944.59
2018-07-25T21:44:35.681Z,99944.53
2018-07-25T21:47:14.789Z,99942.84
2018-07-25T21:49:48.819Z,99944.61
2018-07-25T21:52:25.252Z,99939.72
2018-07-25T21:54:58.564Z,99942.48
2018-07-25T21:57:35.633Z,99941.06
2018-07-25T22:00:16.908Z,99942.20
2018-07-25T22:02:52.849Z,99943.94
2018-07-25T22:05:32.101Z,99946.77
2018-07-25T22:08:07.597Z,99945.77
2018-07-25T22:10:46.316Z,99940.73
2018-07-25T22:13:22.969Z,99938.51
2018-07-25T22:15:59.216Z,99935.02
2018-07-25T22:18:35.603Z,99932.54
2018-07-25T22:21:09.830Z,99929.41
2018-07-25T22:23:43.420Z,99928.94
2018-07-25T22:26:16.584Z,99932.74
2018-07-25T22:28:51.888Z,99931.93
2018-07-25T22:31:26.985Z,99940.70
2018-07-25T22:34:02.112Z,99933.68
2018-07-25T22:36:54.333Z,99933.13
2018-07-25T22:39:29.656Z,99938.30
2018-07-25T22:42:05.725Z,99943.22
2018-07-25T22:44:39.203Z,99945.88
2018-07-25T22:47:12.834Z,99941.36
2018-07-25T22:49:50.432Z,99941.42
2018-07-25T22:52:23.921Z,99944.36
2018-07-25T22:54:57.747Z,99940.98
2018-07-25T22:57:33.977Z,99944.95
2018-07-25T23:00:07.568Z,99947.20
2018-07-25T23:02:42.161Z,99944.77
2018-07-25T23:05:16.379Z,99939.06
2018-07-25T23:07:50.413Z,99931.64
2018-07-25T23:10:27.590Z,99941.64
2018-07-25T23:13:00.513Z,99942.98
2018-07-25T23:15:34.326Z,99943.80
2018-07-25T23:18:08.733Z,99938.94
2018-07-25T23:20:42.786Z,99933.25
2018-07-25T23:23:16.992Z,99929.80
2018-07-25T23:25:51.740Z,99932.01
2018-07-25T23:28:26.785Z,99928.61
2018-07-25T23:31:02.147Z,99931.97
2018-07-25T23:33:36.079Z,99929.25
2018-07-25T23:36:14.022Z,99925.70
2018-07-25T23:38:47.590Z,99929.88
2018-07-25T23:41:21.252Z,99928.16
2018-07-25T23:43:54.208Z,99928.76
2018-07-25T23:46:28.060Z,99928.41
2018-07-25T23:49:01.333Z,99924.73
2018-07-25T23:51:37.510Z,99924.91
2018-07-25T23:54:10.459Z,99924.59
2018-07-25T23:56:43.789Z,99921.73
2018-07-25T23:59:26.197Z,99918.84
